Time;durP1;ratioP1;P1;durP2;ratioP2;P2;SDS_P1;SDS_P2;PMS_P1;PMS_P2;Temp;Humidity;BMP_temperature;BMP_pressure;BME280_temperature;BME280_humidity;BME280_pressure;Samples;Min_cycle;Max_cycle;Signal;HPM_P1;HPM_P2
2021/07/16 00:02:24;;;;;;;17.08;12.50;;;615.10;2432.00;;;;;;5075557;28;20028;-77
2021/07/16 00:04:50;;;;;;;21.23;13.80;;;615.30;2432.00;;;;;;5075810;28;20083;-80
2021/07/16 00:07:17;;;;;;;18.80;13.50;;;640.00;2432.00;;;;;;5093791;28;20517;-77
2021/07/16 00:09:43;;;;;;;17.08;12.20;;;640.10;2432.00;;;;;;5093771;28;20028;-78
2021/07/16 00:12:08;;;;;;;16.27;11.43;;;640.10;2432.00;;;;;;5075223;28;20480;-78
2021/07/16 00:14:34;;;;;;;14.93;11.45;;;640.30;2406.40;;;;;;5092105;28;20031;-78
2021/07/16 00:17:00;;;;;;;16.52;12.35;;;640.30;2406.40;;;;;;5073455;28;20508;-77
2021/07/16 00:19:26;;;;;;;20.83;13.63;;;615.30;2432.00;;;;;;5092412;28;20036;-77
2021/07/16 00:21:52;;;;;;;24.15;13.00;;;615.20;2432.00;;;;;;5092523;28;20062;-77
2021/07/16 00:24:18;;;;;;;20.73;13.30;;;615.30;2432.00;;;;;;5074293;28;20111;-77
2021/07/16 00:26:46;;;;;;;20.77;13.27;;;640.00;2432.00;;;;;;5088971;28;20166;-76
2021/07/16 00:29:13;;;;;;;16.83;12.80;;;640.00;2432.00;;;;;;5073616;28;20036;-77
2021/07/16 00:31:39;;;;;;;18.30;12.63;;;615.30;2432.00;;;;;;5073644;28;20020;-78
2021/07/16 00:34:05;;;;;;;15.77;12.50;;;615.20;2432.00;;;;;;5091542;28;20046;-78
2021/07/16 00:36:30;;;;;;;20.60;13.63;;;615.30;2432.00;;;;;;5091683;28;20075;-76
2021/07/16 00:38:56;;;;;;;21.58;12.60;;;640.20;2432.00;;;;;;5091409;28;20413;-77
2021/07/16 00:41:22;;;;;;;24.48;13.80;;;640.00;2432.00;;;;;;5091317;28;20473;-78
2021/07/16 00:43:48;;;;;;;19.80;13.68;;;640.10;2432.00;;;;;;5073325;28;20023;-77
2021/07/16 00:46:14;;;;;;;20.27;13.88;;;640.20;2432.00;;;;;;5091180;28;20031;-77
2021/07/16 00:48:40;;;;;;;22.08;13.48;;;640.90;2432.00;;;;;;5072824;28;20487;-78
2021/07/16 00:51:06;;;;;;;20.35;12.90;;;640.30;2406.40;;;;;;5091049;28;20031;-77
2021/07/16 00:53:31;;;;;;;18.40;12.98;;;640.50;2406.40;;;;;;5073362;28;20111;-76
2021/07/16 00:55:57;;;;;;;19.85;13.05;;;640.40;2380.80;;;;;;5073006;28;20039;-77
2021/07/16 00:58:23;;;;;;;21.98;13.48;;;640.40;2406.40;;;;;;5091213;28;20389;-78
2021/07/16 01:00:49;;;;;;;19.20;13.55;;;640.40;2406.40;;;;;;5072922;28;20040;-77
2021/07/16 01:03:15;;;;;;;15.43;11.85;;;640.40;2406.40;;;;;;5073218;28;20020;-77
2021/07/16 01:05:44;;;;;;;16.30;12.73;;;640.40;2380.80;;;;;;5072133;28;20040;-77
2021/07/16 01:08:10;;;;;;;17.15;12.55;;;640.20;2406.40;;;;;;5073233;28;20032;-78
2021/07/16 01:10:36;;;;;;;14.77;13.15;;;640.20;2432.00;;;;;;5091085;28;20020;-78
2021/07/16 01:13:02;;;;;;;17.67;13.88;;;640.30;2432.00;;;;;;5073814;28;20069;-78
2021/07/16 01:15:32;;;;;;;19.38;13.73;;;640.40;2432.00;;;;;;5073345;28;20032;-78
2021/07/16 01:17:58;;;;;;;15.30;12.75;;;640.50;2432.00;;;;;;5072846;28;20508;-78
2021/07/16 01:20:26;;;;;;;17.85;13.73;;;640.90;2406.40;;;;;;5089606;28;20030;-77
2021/07/16 01:22:53;;;;;;;17.25;12.27;;;640.50;2432.00;;;;;;5071695;28;20021;-77
2021/07/16 01:25:21;;;;;;;16.17;12.70;;;640.60;2380.80;;;;;;5085016;28;20024;-78
2021/07/16 01:27:49;;;;;;;19.92;12.77;;;640.50;2355.20;;;;;;5092151;28;20071;-78
2021/07/16 01:30:18;;;;;;;17.80;13.52;;;640.70;2380.80;;;;;;5095857;28;20430;-77
2021/07/16 01:32:44;;;;;;;16.60;13.15;;;640.50;2432.00;;;;;;5095505;28;20074;-77
2021/07/16 01:35:11;;;;;;;20.70;14.30;;;640.30;2432.00;;;;;;5095621;28;20054;-77
2021/07/16 01:37:37;;;;;;;19.33;14.68;;;640.20;2432.00;;;;;;5095741;28;20039;-78
2021/07/16 01:40:09;;;;;;;19.10;14.90;;;640.00;2432.00;;;;;;5077409;28;20065;-78
2021/07/16 01:42:41;;;;;;;21.92;13.88;;;640.00;2432.00;;;;;;5073391;28;20016;-77
2021/07/16 01:45:10;;;;;;;17.17;13.40;;;640.10;2432.00;;;;;;5095181;28;20024;-77
2021/07/16 01:47:58;;;;;;;17.38;12.40;;;640.20;2432.00;;;;;;5095392;28;20024;-78
2021/07/16 01:50:26;;;;;;;14.13;12.52;;;640.20;2432.00;;;;;;5067413;28;20031;-78
2021/07/16 01:52:53;;;;;;;19.10;14.45;;;640.20;2406.40;;;;;;5095164;28;20077;-77
2021/07/16 01:55:21;;;;;;;16.25;14.13;;;640.00;2432.00;;;;;;5095384;28;20024;-77
2021/07/16 01:57:54;;;;;;;21.60;14.50;;;615.30;2432.00;;;;;;5076609;28;20052;-77
2021/07/16 02:00:26;;;;;;;20.92;13.32;;;640.20;2432.00;;;;;;5081707;28;20020;-77
2021/07/16 02:03:13;;;;;;;19.83;13.90;;;640.40;2432.00;;;;;;5102367;28;20031;-77
2021/07/16 02:05:39;;;;;;;;;;;640.10;2432.00;;;;;;5085856;28;20061;-79
2021/07/16 02:08:11;;;;;;;19.52;14.45;;;640.00;2432.00;;;;;;5102574;28;20010;-77
2021/07/16 02:10:37;;;;;;;19.83;14.07;;;640.00;2432.00;;;;;;5106789;28;20058;-77
2021/07/16 02:13:03;;;;;;;18.27;13.95;;;640.20;2432.00;;;;;;5094828;28;20434;-77
2021/07/16 02:15:32;;;;;;;18.33;13.10;;;640.10;2432.00;;;;;;5077500;28;20496;-78
2021/07/16 02:17:59;;;;;;;19.02;14.13;;;640.00;2432.00;;;;;;5074216;28;20032;-79
2021/07/16 02:20:37;;;;;;;16.92;13.00;;;640.00;2432.00;;;;;;5089160;28;20040;-78
2021/07/16 02:23:10;;;;;;;19.95;14.00;;;640.20;2380.80;;;;;;5078824;28;20039;-77
2021/07/16 02:25:36;;;;;;;23.02;12.52;;;640.40;2432.00;;;;;;5102168;28;20530;-78
2021/07/16 02:28:07;;;;;;;18.42;13.75;;;640.40;2432.00;;;;;;5098481;28;20028;-78
2021/07/16 02:30:34;;;;;;;20.52;12.90;;;640.40;2432.00;;;;;;5095091;28;20380;-78
2021/07/16 02:33:01;;;;;;;16.55;12.43;;;640.50;2432.00;;;;;;5075481;28;20032;-78
2021/07/16 02:35:29;;;;;;;21.85;13.07;;;640.40;2432.00;;;;;;5094777;28;20066;-78
2021/07/16 02:37:55;;;;;;;17.63;13.07;;;640.50;2432.00;;;;;;5094908;28;20043;-78
2021/07/16 02:40:22;;;;;;;19.25;13.88;;;640.60;2432.00;;;;;;5093747;28;20031;-77
2021/07/16 02:42:48;;;;;;;19.60;14.63;;;640.60;2432.00;;;;;;5094108;28;20105;-76
2021/07/16 02:45:16;;;;;;;19.67;14.45;;;640.40;2432.00;;;;;;5094322;28;20469;-76
2021/07/16 02:47:42;;;;;;;25.55;13.32;;;640.10;2432.00;;;;;;5094499;28;20043;-77
2021/07/16 02:50:14;;;;;;;18.63;13.82;;;640.20;2432.00;;;;;;5076451;28;20481;-76
2021/07/16 02:52:41;;;;;;;19.45;14.05;;;640.00;2432.00;;;;;;5094293;28;20078;-77
2021/07/16 02:55:08;;;;;;;18.90;13.88;;;615.30;2432.00;;;;;;5076075;28;20032;-78
2021/07/16 02:57:34;;;;;;;18.85;14.10;;;615.30;2432.00;;;;;;5093593;28;20054;-79
2021/07/16 03:00:00;;;;;;;19.15;14.00;;;640.00;2432.00;;;;;;5073750;28;20093;-79
2021/07/16 03:02:29;;;;;;;21.92;14.23;;;615.30;2432.00;;;;;;5077005;28;20081;-82
2021/07/16 03:04:58;;;;;;;22.33;15.35;;;640.00;2432.00;;;;;;5076456;28;20048;-80
2021/07/16 03:07:24;;;;;;;21.77;14.75;;;615.20;2432.00;;;;;;5076247;28;20464;-82
2021/07/16 03:09:50;;;;;;;24.10;15.48;;;615.30;2432.00;;;;;;5077265;28;20066;-81
2021/07/16 03:12:16;;;;;;;17.50;14.98;;;615.20;2432.00;;;;;;5076418;28;20027;-78
2021/07/16 03:14:41;;;;;;;23.65;16.77;;;615.10;2432.00;;;;;;5075881;28;20039;-79
2021/07/16 03:17:07;;;;;;;21.40;15.88;;;615.10;2432.00;;;;;;5074793;28;20038;-85
2021/07/16 03:19:35;;;;;;;17.58;14.63;;;615.20;2432.00;;;;;;5076474;28;20095;-83
2021/07/16 03:22:01;;;;;;;28.77;16.88;;;615.30;2432.00;;;;;;5076226;28;20036;-81
2021/07/16 03:24:27;;;;;;;28.83;17.17;;;615.10;2432.00;;;;;;5076866;28;20027;-83
2021/07/16 03:26:52;;;;;;;24.73;17.55;;;615.00;2432.00;;;;;;5076544;28;20028;-80
2021/07/16 03:29:18;;;;;;;23.42;16.65;;;615.10;2432.00;;;;;;5075863;28;20027;-79
2021/07/16 03:31:44;;;;;;;19.65;15.13;;;615.00;2432.00;;;;;;5074635;28;20180;-79
2021/07/16 03:34:09;;;;;;;19.63;15.32;;;615.00;2432.00;;;;;;5075102;28;20102;-78
2021/07/16 03:36:35;;;;;;;17.08;14.27;;;614.90;2432.00;;;;;;5074703;28;20457;-77
2021/07/16 03:39:03;;;;;;;16.67;14.60;;;614.90;2432.00;;;;;;5093511;28;20059;-78
2021/07/16 03:41:29;;;;;;;19.63;15.20;;;614.90;2432.00;;;;;;5075489;28;20035;-77
2021/07/16 03:43:55;;;;;;;18.50;15.40;;;614.90;2432.00;;;;;;5093629;28;20028;-78
2021/07/16 03:46:21;;;;;;;22.27;15.38;;;615.00;2432.00;;;;;;5074988;28;20401;-80
2021/07/16 03:48:47;;;;;;;21.05;16.00;;;615.00;2432.00;;;;;;5075323;28;20466;-78
2021/07/16 03:51:12;;;;;;;19.92;15.10;;;615.00;2432.00;;;;;;5075154;28;20039;-81
2021/07/16 03:53:38;;;;;;;25.30;15.25;;;615.20;2432.00;;;;;;5075633;28;20085;-79
2021/07/16 03:56:04;;;;;;;27.23;19.08;;;615.30;2432.00;;;;;;5075015;28;20431;-79
2021/07/16 03:58:30;;;;;;;17.90;15.63;;;615.30;2432.00;;;;;;5092860;28;20481;-80
2021/07/16 04:00:56;;;;;;;21.38;15.35;;;640.00;2432.00;;;;;;5075503;28;20024;-80
2021/07/16 04:03:21;;;;;;;20.70;14.68;;;640.10;2432.00;;;;;;5093174;28;20024;-81
2021/07/16 04:05:48;;;;;;;20.23;15.27;;;640.00;2432.00;;;;;;5092734;28;20048;-79
2021/07/16 04:08:17;;;;;;;18.60;14.45;;;640.00;2432.00;;;;;;5075400;28;20057;-79
2021/07/16 04:10:43;;;;;;;20.00;15.80;;;640.00;2432.00;;;;;;5074855;28;20059;-79
2021/07/16 04:13:13;;;;;;;17.13;15.23;;;615.30;2432.00;;;;;;5073436;28;20028;-79
2021/07/16 04:15:41;;;;;;;20.70;16.75;;;615.20;2432.00;;;;;;5067951;28;20020;-78
2021/07/16 04:18:07;;;;;;;18.67;13.63;;;615.30;2432.00;;;;;;5058350;28;20021;-79
2021/07/16 04:20:35;;;;;;;19.02;14.70;;;640.00;2432.00;;;;;;5069913;28;20081;-78
2021/07/16 04:23:02;;;;;;;20.30;15.25;;;615.30;2432.00;;;;;;5074512;28;20066;-78
2021/07/16 04:25:28;;;;;;;22.05;15.85;;;640.00;2432.00;;;;;;5083304;28;20019;-78
2021/07/16 04:27:57;;;;;;;21.27;15.48;;;640.00;2432.00;;;;;;5092637;28;20404;-79
2021/07/16 04:30:23;;;;;;;21.25;14.32;;;640.00;2432.00;;;;;;5074336;28;20081;-78
2021/07/16 04:32:53;;;;;;;20.08;15.43;;;615.30;2432.00;;;;;;5083210;28;20032;-78
2021/07/16 04:35:19;;;;;;;20.10;14.27;;;615.30;2432.00;;;;;;5066137;28;20043;-81
2021/07/16 04:37:45;;;;;;;18.38;15.13;;;640.00;2432.00;;;;;;5082658;28;20028;-78
2021/07/16 04:40:15;;;;;;;16.23;14.13;;;640.00;2432.00;;;;;;5070436;28;20520;-79
2021/07/16 04:42:41;;;;;;;15.27;13.35;;;640.00;2432.00;;;;;;5069923;28;20035;-81
2021/07/16 04:45:07;;;;;;;19.27;14.57;;;615.30;2432.00;;;;;;5070519;28;20102;-79
2021/07/16 04:47:33;;;;;;;20.58;15.13;;;640.10;2432.00;;;;;;5064850;28;20024;-77
2021/07/16 04:49:59;;;;;;;18.98;13.98;;;615.30;2432.00;;;;;;5066070;28;20029;-79
2021/07/16 04:52:25;;;;;;;20.65;14.65;;;615.30;2432.00;;;;;;5068936;28;20093;-78
2021/07/16 04:54:51;;;;;;;19.35;15.23;;;615.30;2432.00;;;;;;5074078;28;20024;-80
2021/07/16 04:57:16;;;;;;;17.42;13.70;;;615.30;2432.00;;;;;;5074248;28;20503;-80
2021/07/16 04:59:42;;;;;;;19.05;13.27;;;640.00;2432.00;;;;;;5073938;28;20420;-79
2021/07/16 05:02:08;;;;;;;18.85;13.50;;;640.00;2432.00;;;;;;5073777;28;20368;-78
2021/07/16 05:04:34;;;;;;;20.77;13.90;;;640.10;2432.00;;;;;;5073269;28;20024;-78
2021/07/16 05:07:00;;;;;;;14.63;12.88;;;640.20;2432.00;;;;;;5073893;28;20028;-78
2021/07/16 05:09:26;;;;;;;17.40;14.10;;;640.20;2432.00;;;;;;5073658;28;20054;-78
2021/07/16 05:11:52;;;;;;;21.55;14.45;;;640.20;2432.00;;;;;;5091712;28;20405;-79
2021/07/16 05:14:19;;;;;;;19.00;14.98;;;640.20;2432.00;;;;;;5073816;28;20024;-79
2021/07/16 05:16:45;;;;;;;19.08;13.57;;;640.10;2432.00;;;;;;5092124;28;20036;-79
2021/07/16 05:19:11;;;;;;;19.55;15.85;;;640.00;2432.00;;;;;;5091736;28;20020;-79
2021/07/16 05:21:37;;;;;;;18.20;14.20;;;615.30;2432.00;;;;;;5072887;28;20089;-77
2021/07/16 05:24:03;;;;;;;18.38;14.20;;;640.00;2432.00;;;;;;5073755;28;20119;-77
2021/07/16 05:26:29;;;;;;;20.95;13.60;;;640.00;2432.00;;;;;;5074187;28;20020;-81
2021/07/16 05:28:55;;;;;;;22.90;14.27;;;615.30;2432.00;;;;;;5073742;28;20047;-83
2021/07/16 05:31:21;;;;;;;20.80;14.85;;;615.30;2432.00;;;;;;5092012;28;20059;-78
2021/07/16 05:33:47;;;;;;;18.02;14.75;;;615.10;2432.00;;;;;;5071322;28;20043;-78
2021/07/16 05:36:13;;;;;;;23.85;14.57;;;615.00;2432.00;;;;;;5063358;28;20036;-83
2021/07/16 05:38:39;;;;;;;19.13;13.55;;;615.20;2432.00;;;;;;5068101;28;20027;-78
2021/07/16 05:41:06;;;;;;;19.45;13.57;;;615.20;2432.00;;;;;;5067822;28;20016;-83
2021/07/16 05:43:33;;;;;;;18.85;14.25;;;615.20;2432.00;;;;;;5073323;28;20619;-79
2021/07/16 05:45:59;;;;;;;16.13;13.90;;;615.10;2432.00;;;;;;5092072;28;20063;-78
2021/07/16 06:01:00;;;;;;;18.98;15.05;;;615.30;2432.00;;;;;;5125049;27;20799;-76
2021/07/16 06:03:26;;;;;;;19.52;14.20;;;640.90;2406.40;;;;;;5108444;28;20069;-80
2021/07/16 06:05:52;;;;;;;18.40;13.02;;;640.90;2380.80;;;;;;5109094;28;20028;-78
2021/07/16 06:08:18;;;;;;;22.30;14.25;;;640.80;2355.20;;;;;;5109446;28;20070;-79
2021/07/16 06:10:43;;;;;;;21.67;14.20;;;640.80;2406.40;;;;;;5108097;28;20433;-79
2021/07/16 06:13:09;;;;;;;18.38;13.32;;;640.70;2406.40;;;;;;5108359;28;20039;-79
2021/07/16 06:15:35;;;;;;;15.70;13.35;;;640.60;2406.40;;;;;;5107875;28;20354;-84
2021/07/16 06:18:02;;;;;;;18.02;14.10;;;640.60;2432.00;;;;;;5109076;28;20028;-78
2021/07/16 06:20:28;;;;;;;25.45;16.40;;;640.50;2432.00;;;;;;5108083;28;20580;-77
2021/07/16 06:22:53;;;;;;;20.77;16.52;;;640.50;2432.00;;;;;;5107875;28;20115;-79
2021/07/16 06:25:19;;;;;;;22.15;15.07;;;640.40;2432.00;;;;;;5108972;28;20085;-78
2021/07/16 06:27:46;;;;;;;22.88;16.35;;;640.50;2432.00;;;;;;5107763;28;20027;-78
2021/07/16 06:30:12;;;;;;;18.00;15.70;;;640.60;2432.00;;;;;;5107441;28;20028;-78
2021/07/16 06:32:38;;;;;;;19.88;16.00;;;640.40;2432.00;;;;;;5107732;28;20078;-79
2021/07/16 06:35:06;;;;;;;19.40;14.90;;;640.70;2406.40;;;;;;5107475;28;20044;-79
2021/07/16 06:37:32;;;;;;;19.23;16.13;;;640.70;2432.00;;;;;;5107592;28;20073;-79
2021/07/16 06:39:58;;;;;;;24.60;14.85;;;665.60;2432.00;;;;;;5108938;28;20020;-78
2021/07/16 06:42:24;;;;;;;22.95;16.65;;;665.60;2406.40;;;;;;5107411;28;20031;-78
2021/07/16 06:44:50;;;;;;;18.50;14.48;;;665.60;2432.00;;;;;;5107252;28;20028;-79
2021/07/16 06:47:16;;;;;;;20.98;14.65;;;665.80;2432.00;;;;;;5107715;28;20843;-77
2021/07/16 06:49:42;;;;;;;20.40;15.50;;;666.00;2432.00;;;;;;5108623;28;20036;-79
2021/07/16 06:52:08;;;;;;;23.20;15.75;;;666.20;2432.00;;;;;;5106796;28;20023;-79
2021/07/16 06:54:34;;;;;;;24.88;17.40;;;666.20;2432.00;;;;;;5106714;28;20492;-78
2021/07/16 06:57:00;;;;;;;19.20;15.60;;;666.20;2432.00;;;;;;5091468;28;20028;-78
2021/07/16 06:59:25;;;;;;;24.17;18.05;;;666.00;2432.00;;;;;;5096057;28;20055;-79
2021/07/16 07:01:51;;;;;;;22.25;16.13;;;665.90;2432.00;;;;;;5092812;28;20162;-79
2021/07/16 07:04:17;;;;;;;24.02;16.55;;;666.20;2432.00;;;;;;5092727;28;20073;-78
2021/07/16 07:06:44;;;;;;;20.38;15.75;;;665.80;2432.00;;;;;;5080717;28;20456;-78
2021/07/16 07:09:09;;;;;;;22.38;16.00;;;665.90;2432.00;;;;;;5080934;28;20039;-78
2021/07/16 07:11:36;;;;;;;20.50;15.57;;;666.00;2432.00;;;;;;5085657;28;20116;-78
2021/07/16 07:14:02;;;;;;;19.52;15.32;;;666.00;2432.00;;;;;;5076901;28;20102;-78
2021/07/16 07:16:28;;;;;;;21.65;15.40;;;666.30;2406.40;;;;;;5074400;28;20543;-78
2021/07/16 07:18:54;;;;;;;21.45;14.23;;;666.50;2432.00;;;;;;5087291;28;20064;-78
2021/07/16 07:21:20;;;;;;;16.35;14.55;;;691.20;2380.80;;;;;;5075292;28;20420;-77
2021/07/16 07:23:45;;;;;;;21.42;14.27;;;691.40;2380.80;;;;;;5074334;28;20489;-79
2021/07/16 07:26:11;;;;;;;18.40;13.50;;;691.50;2355.20;;;;;;5088546;28;20499;-79
2021/07/16 07:28:37;;;;;;;18.20;14.32;;;691.40;2355.20;;;;;;5083239;28;20028;-79
2021/07/16 07:31:04;;;;;;;21.15;13.45;;;691.50;2355.20;;;;;;5080114;28;20440;-80
2021/07/16 07:33:30;;;;;;;17.13;13.35;;;691.60;2329.60;;;;;;5081944;28;20023;-80
2021/07/16 07:35:56;;;;;;;22.67;14.07;;;691.40;2329.60;;;;;;5092900;28;20027;-79
2021/07/16 07:38:23;;;;;;;19.88;13.77;;;691.30;2355.20;;;;;;5076012;28;20497;-78
2021/07/16 07:40:49;;;;;;;15.50;13.70;;;691.40;2380.80;;;;;;5085605;28;20028;-77
2021/07/16 07:43:15;;;;;;;16.40;14.32;;;691.70;2329.60;;;;;;5077631;28;20055;-78
2021/07/16 07:45:41;;;;;;;19.95;14.65;;;691.90;2304.00;;;;;;5074949;28;20052;-78
2021/07/16 07:48:07;;;;;;;17.92;13.93;;;691.90;2304.00;;;;;;5076549;28;20461;-79
2021/07/16 07:50:33;;;;;;;17.63;14.13;;;692.00;2278.40;;;;;;5081148;28;20118;-79
2021/07/16 07:53:00;;;;;;;17.42;14.65;;;716.80;2329.60;;;;;;5124914;27;20115;-79
2021/07/16 07:55:26;;;;;;;19.67;14.70;;;717.00;2252.80;;;;;;5092154;28;20126;-79
2021/07/16 07:57:54;;;;;;;16.35;13.20;;;717.10;2227.20;;;;;;5084467;28;20477;-79
2021/07/16 08:00:25;;;;;;;33.65;22.73;;;717.30;2252.80;;;;;;5091212;28;20509;-78
2021/07/16 08:02:51;;;;;;;19.63;15.23;;;717.50;2201.60;;;;;;5093270;28;20024;-78
2021/07/16 08:05:17;;;;;;;18.25;16.20;;;717.60;2227.20;;;;;;5092139;28;20405;-78
2021/07/16 08:07:43;;;;;;;18.60;15.95;;;717.70;2227.20;;;;;;5093502;28;20024;-78
2021/07/16 08:10:12;;;;;;;20.50;16.65;;;717.60;2252.80;;;;;;5092251;28;20193;-77
2021/07/16 08:12:38;;;;;;;17.35;14.82;;;717.60;2227.20;;;;;;5090826;28;20035;-76
2021/07/16 08:15:06;;;;;;;24.55;18.08;;;717.50;2201.60;;;;;;5093247;28;20035;-77
2021/07/16 08:17:32;;;;;;;22.52;17.23;;;717.40;2252.80;;;;;;5092933;28;20012;-76
2021/07/16 08:19:58;;;;;;;20.85;16.63;;;717.30;2252.80;;;;;;5093058;28;20031;-78
2021/07/16 08:22:24;;;;;;;24.13;18.08;;;717.20;2278.40;;;;;;5093176;28;20027;-78
2021/07/16 08:24:50;;;;;;;22.65;17.52;;;717.10;2304.00;;;;;;5091780;28;20023;-79
2021/07/16 08:27:16;;;;;;;22.20;15.88;;;716.90;2329.60;;;;;;5093307;28;20020;-78
2021/07/16 08:29:41;;;;;;;20.75;17.17;;;716.90;2304.00;;;;;;5091547;28;20051;-78
2021/07/16 08:32:08;;;;;;;21.17;16.42;;;717.00;2278.40;;;;;;5091438;28;20024;-78
2021/07/16 08:34:34;;;;;;;27.65;17.23;;;717.20;2278.40;;;;;;5092705;28;20024;-79
2021/07/16 08:37:00;;;;;;;23.38;17.92;;;717.20;2278.40;;;;;;5091677;28;20028;-78
2021/07/16 08:39:26;;;;;;;27.05;23.23;;;717.40;2278.40;;;;;;5091695;28;20111;-79
2021/07/16 08:41:53;;;;;;;23.55;20.85;;;717.50;2278.40;;;;;;5091846;28;20027;-76
2021/07/16 08:44:19;;;;;;;23.08;18.55;;;717.50;2227.20;;;;;;5092641;28;20415;-78
2021/07/16 08:46:46;;;;;;;26.48;20.40;;;717.70;2227.20;;;;;;5091340;28;20028;-80
2021/07/16 08:49:13;;;;;;;18.30;16.40;;;742.40;2278.40;;;;;;5091701;28;20047;-79
2021/07/16 08:51:40;;;;;;;22.02;16.50;;;742.60;2201.60;;;;;;5090474;28;20016;-79
2021/07/16 08:54:08;;;;;;;24.92;16.73;;;742.90;2252.80;;;;;;5092256;28;20107;-78
2021/07/16 08:56:36;;;;;;;19.98;15.20;;;743.00;2176.00;;;;;;5089506;28;20482;-77
2021/07/16 08:59:05;;;;;;;23.95;16.20;;;743.10;2201.60;;;;;;5092012;28;20081;-78
2021/07/16 09:01:32;;;;;;;18.80;16.02;;;743.10;2176.00;;;;;;5091911;28;20020;-78
2021/07/16 09:04:03;;;;;;;20.23;16.67;;;743.20;2150.40;;;;;;5089921;28;20024;-80
2021/07/16 09:06:42;;;;;;;20.65;15.95;;;743.30;2124.80;;;;;;5081383;28;20028;-79
2021/07/16 09:09:08;;;;;;;20.20;15.43;;;743.20;2150.40;;;;;;5089022;28;20028;-78
2021/07/16 09:11:39;;;;;;;25.10;16.58;;;743.10;2150.40;;;;;;5073589;28;20028;-78
2021/07/16 09:14:04;;;;;;;19.25;15.27;;;743.10;2176.00;;;;;;5087050;28;20028;-79
2021/07/16 09:16:30;;;;;;;20.90;17.02;;;743.10;2150.40;;;;;;5073632;28;20089;-79
2021/07/16 09:18:59;;;;;;;22.92;16.38;;;743.10;2150.40;;;;;;5088515;28;20021;-79
2021/07/16 09:21:25;;;;;;;19.42;17.45;;;743.10;2176.00;;;;;;5090556;28;20028;-79
2021/07/16 09:23:51;;;;;;;22.00;16.95;;;743.00;2150.40;;;;;;5089511;28;20065;-78
2021/07/16 09:26:26;;;;;;;21.65;16.77;;;742.90;2201.60;;;;;;5087094;28;20446;-81
2021/07/16 09:28:53;;;;;;;20.08;16.65;;;743.00;2176.00;;;;;;5090650;28;20028;-79
2021/07/16 09:31:23;;;;;;;20.45;17.25;;;742.80;2201.60;;;;;;5090259;28;20040;-79
2021/07/16 09:33:57;;;;;;;22.02;17.42;;;742.80;2201.60;;;;;;5091999;28;20038;-79
2021/07/16 09:36:30;;;;;;;24.55;17.50;;;742.90;2201.60;;;;;;5091206;28;20550;-80
2021/07/16 09:39:08;;;;;;;26.15;17.85;;;743.00;2201.60;;;;;;5091618;28;20032;-78
2021/07/16 09:41:44;;;;;;;27.77;17.10;;;742.90;2201.60;;;;;;5090545;28;20047;-79
2021/07/16 09:44:10;;;;;;;20.00;15.90;;;742.90;2201.60;;;;;;5090491;28;20036;-80
2021/07/16 09:46:36;;;;;;;24.60;16.55;;;742.80;2176.00;;;;;;5089884;28;20028;-79
2021/07/16 09:49:14;;;;;;;22.00;17.80;;;742.80;2201.60;;;;;;5085119;28;20043;-78
2021/07/16 09:51:42;;;;;;;18.38;16.48;;;742.80;2176.00;;;;;;5090115;28;20039;-79
2021/07/16 09:54:13;;;;;;;21.60;17.27;;;742.80;2150.40;;;;;;5091038;28;20036;-86
2021/07/16 09:56:39;;;;;;;21.10;17.08;;;742.80;2201.60;;;;;;5080262;28;20023;-81
2021/07/16 09:59:19;;;;;;;22.35;17.40;;;742.80;2201.60;;;;;;5090679;28;20115;-81
2021/07/16 10:01:48;;;;;;;23.63;16.27;;;742.80;2201.60;;;;;;5090944;28;20111;-82
2021/07/16 10:04:21;;;;;;;19.42;17.05;;;742.80;2201.60;;;;;;5086892;28;20043;-81
2021/07/16 10:06:54;;;;;;;17.60;15.77;;;742.80;2201.60;;;;;;5084076;28;20446;-80
2021/07/16 10:09:22;;;;;;;23.98;16.15;;;742.70;2201.60;;;;;;5090010;28;20146;-80
2021/07/16 10:11:54;;;;;;;19.23;15.88;;;742.70;2201.60;;;;;;5076343;28;20021;-79
2021/07/16 10:14:20;;;;;;;19.10;14.40;;;742.60;2201.60;;;;;;5089750;28;20030;-80
2021/07/16 10:16:48;;;;;;;19.05;16.45;;;742.50;2176.00;;;;;;5079045;28;20048;-80
2021/07/16 10:19:16;;;;;;;17.50;15.63;;;717.70;2150.40;;;;;;5088076;28;20020;-82
2021/07/16 10:21:46;;;;;;;20.20;15.90;;;742.50;2201.60;;;;;;5080434;28;20016;-80
2021/07/16 10:24:14;;;;;;;26.42;15.73;;;717.70;2201.60;;;;;;5080076;28;20597;-81
2021/07/16 10:26:42;;;;;;;17.17;14.30;;;717.70;2176.00;;;;;;5090792;28;20059;-80
2021/07/16 10:29:39;;;;;;;21.55;15.52;;;742.40;2201.60;;;;;;5083031;28;20037;-81
2021/07/16 10:32:09;;;;;;;23.85;15.90;;;742.50;2176.00;;;;;;5077840;28;20060;-83
2021/07/16 10:34:37;;;;;;;16.90;14.52;;;742.80;2176.00;;;;;;5080181;28;20073;-81
2021/07/16 10:37:10;;;;;;;20.42;14.82;;;742.90;2176.00;;;;;;5083831;28;20043;-83
2021/07/16 10:39:51;;;;;;;17.80;13.40;;;743.10;2150.40;;;;;;5092702;28;20044;-84
2021/07/16 10:42:26;;;;;;;18.45;15.15;;;768.30;2048.00;;;;;;5091670;28;20058;-81
2021/07/16 10:44:58;;;;;;;18.73;14.98;;;768.40;2073.60;;;;;;5093734;28;20457;-80
2021/07/16 10:47:50;;;;;;;18.13;14.32;;;768.40;2073.60;;;;;;5092459;28;20028;-83
2021/07/16 10:50:28;;;;;;;14.93;13.23;;;768.20;2048.00;;;;;;5091198;28;20040;-81
2021/07/16 10:52:54;;;;;;;15.45;13.10;;;768.10;2073.60;;;;;;5088130;28;20177;-84
2021/07/16 10:55:40;;;;;;;18.05;12.57;;;743.30;2073.60;;;;;;5094235;28;20020;-85
2021/07/16 10:58:18;;;;;;;17.35;13.10;;;743.30;2048.00;;;;;;5094024;28;20025;-84
2021/07/16 11:00:44;;;;;;;14.30;12.10;;;743.10;2048.00;;;;;;5092184;28;20044;-83
2021/07/16 11:03:12;;;;;;;16.60;12.40;;;743.00;2022.40;;;;;;5093995;28;20469;-81
2021/07/16 11:05:44;;;;;;;14.82;11.65;;;743.00;2073.60;;;;;;5094263;28;20070;-85
2021/07/16 11:08:35;;;;;;;13.93;12.32;;;742.80;2073.60;;;;;;5086326;28;20048;-82
2021/07/16 11:11:12;;;;;;;13.18;11.27;;;742.60;2099.20;;;;;;5093718;28;20031;-82
2021/07/16 11:13:53;;;;;;;20.02;11.73;;;742.50;2073.60;;;;;;5093730;28;20032;-83
2021/07/16 11:16:19;;;;;;;18.45;11.60;;;742.40;2124.80;;;;;;5082206;28;20012;-82
2021/07/16 11:19:10;;;;;;;12.35;10.90;;;717.70;2124.80;;;;;;5083189;28;20028;-83
2021/07/16 11:21:39;;;;;;;17.30;12.57;;;717.60;2176.00;;;;;;5072721;28;20033;-82
2021/07/16 11:24:20;;;;;;;15.70;10.60;;;717.40;2176.00;;;;;;5076863;28;20023;-83
2021/07/16 11:27:01;;;;;;;14.43;10.32;;;717.40;2150.40;;;;;;5083061;28;20028;-82
2021/07/16 11:29:32;;;;;;;14.82;11.45;;;717.40;2176.00;;;;;;5091169;28;20039;-84
2021/07/16 11:32:20;;;;;;;13.32;11.55;;;717.40;2201.60;;;;;;5084243;28;20055;-88
2021/07/16 11:34:54;;;;;;;14.35;11.05;;;717.40;2201.60;;;;;;5093700;28;20111;-87
2021/07/16 11:37:44;;;;;;;14.23;11.73;;;717.40;2176.00;;;;;;5086619;28;20027;-89
2021/07/16 11:40:17;;;;;;;15.73;10.55;;;717.70;2176.00;;;;;;5091101;28;20069;-87
2021/07/16 11:42:50;;;;;;;10.77;9.30;;;742.50;2201.60;;;;;;5083848;28;20036;-87
2021/07/16 11:45:24;;;;;;;12.93;8.95;;;742.60;2150.40;;;;;;5081261;28;20025;-83
2021/07/16 11:47:51;;;;;;;16.00;9.70;;;742.80;2124.80;;;;;;5112205;27;20052;-80
2021/07/16 11:50:18;;;;;;;12.63;9.45;;;742.90;2073.60;;;;;;5090786;28;20032;-89
2021/07/16 11:52:49;;;;;;;11.80;8.93;;;742.90;2099.20;;;;;;5094863;28;20024;-87
2021/07/16 11:55:21;;;;;;;12.65;9.13;;;742.90;2099.20;;;;;;5093761;28;20024;-89
2021/07/16 11:57:51;;;;;;;13.65;9.13;;;743.00;2073.60;;;;;;5092642;28;20073;-82
2021/07/16 12:00:23;;;;;;;11.85;8.57;;;743.00;2073.60;;;;;;5092135;28;20516;-85
2021/07/16 12:02:48;;;;;;;12.43;9.05;;;743.00;2048.00;;;;;;5112944;27;20035;-82
2021/07/16 12:05:15;;;;;;;11.57;9.48;;;743.00;2022.40;;;;;;5082004;28;20025;-78
2021/07/16 12:07:44;;;;;;;12.80;8.65;;;743.10;2022.40;;;;;;5083125;28;20500;-79
2021/07/16 12:10:15;;;;;;;11.02;8.23;;;768.10;1996.80;;;;;;5083197;28;20089;-80
2021/07/16 12:12:42;;;;;;;10.18;7.85;;;768.40;1971.20;;;;;;5082471;28;20074;-84
2021/07/16 12:15:19;;;;;;;10.98;8.27;;;768.80;1894.40;;;;;;5084428;28;20107;-82
2021/07/16 12:17:53;;;;;;;9.65;8.30;;;793.60;1894.40;;;;;;5089696;28;20025;-81
2021/07/16 12:20:21;;;;;;;13.38;8.48;;;793.60;1920.00;;;;;;5084550;28;20031;-82